Latest Weather Observations for Mount Hotham Airport

IDV60801

Issued at 9:42 am EST Wednesday 28 September 2022 (issued every 10 minutes, with the page automatically refreshed every 10 minutes)

About weather observations | Map of weather stations | Latest weather observations for VIC | Other Formats
Station Details ID: 083055 Name: MOUNT HOTHAM AIRPORT Lat: -37.05 Lon: 147.33 Height: 1295.4 m
Data from the previous 72 hours. | See also: Recent months at Mount Hotham Airport
Date/Time
EST
Temp
°C
App
Temp
°C
Dew
Point
°C
Rel
Hum
%
Delta-T
°C
Wind Press
QNH
hPa
Press
MSL
hPa
Rain since
9am
mm
Dir  Spd
km/h
Gust
km/h
Spd
kts
Gust
kts
28/09:30am 7.1 2.8 7.0 99 0.0 SSE 19 32 10 17 1015.6 1015.5 0.0
28/09:24am 6.9 2.6 6.8 99 0.0 SSE 19 28 10 15 1015.6 1015.5 0.0
28/09:11am 6.8 2.4 6.7 99 0.0 SSE 19 33 10 18 1015.6 1015.5 0.0
28/09:01am 7.2 3.3 7.1 99 0.1 S 17 32 9 17 1015.6 1015.5 0.0
28/09:00am 7.1 3.2 7.0 99 0.0 S 17 32 9 17 1015.6 1015.5 4.8
28/08:30am 6.5 2.4 6.4 99 0.0 SSE 17 26 9 14 1015.4 1015.2 4.6
28/08:10am 6.6 2.2 6.6 100 0.0 SSE 19 28 10 15 1015.1 1014.9 4.6
28/08:00am 6.5 2.1 6.5 100 0.0 SSE 19 30 10 16 1015.0 1014.8 4.6
28/07:59am 6.5 2.1 6.5 100 0.0 SSE 19 30 10 16 1015.0 1014.8 4.6
28/07:30am 6.4 2.3 6.4 100 0.0 SSE 17 24 9 13 1014.6 1014.4 4.4
28/07:04am 6.2 2.5 6.2 100 0.0 SSE 15 20 8 11 1014.4 1014.2 4.2
28/07:00am 6.2 2.9 6.2 100 0.0 SSE 13 20 7 11 1014.3 1014.1 4.2
28/06:47am 6.2 3.2 6.2 100 0.0 SSE 11 19 6 10 1014.2 1013.9 4.2
28/06:30am 6.1 2.7 6.1 100 0.0 SSE 13 20 7 11 1014.0 1013.8 4.2
28/06:22am 6.1 2.7 6.1 100 0.0 SSE 13 22 7 12 1014.0 1013.8 4.2
28/06:00am 5.9 3.3 5.9 100 0.0 S 9 15 5 8 1013.8 1013.6 3.8
28/05:30am 5.8 2.8 5.8 100 0.0 S 11 19 6 10 1013.6 1013.4 3.6
28/05:03am 5.8 3.1 5.8 100 0.0 S 9 13 5 7 1013.5 1013.2 3.6
28/05:00am 5.8 3.1 5.8 100 0.0 S 9 13 5 7 1013.5 1013.2 3.6
28/04:49am 5.9 3.3 5.9 100 0.0 S 9 13 5 7 1013.5 1013.2 3.6
28/04:30am 5.9 3.6 5.8 99 0.0 S 7 13 4 7 1013.5 1013.2 3.6
28/04:21am 5.7 3.6 5.6 99 0.0 S 6 9 3 5 1013.4 1013.1 3.6
28/04:00am 6.0 3.4 6.0 100 0.0 SE 9 11 5 6 1013.4 1013.1 3.0
28/03:42am 6.0 3.8 6.0 100 0.0 SE 7 13 4 7 1013.4 1013.1 2.8
28/03:34am 6.0 3.8 6.0 100 0.0 SE 7 11 4 6 1013.5 1013.2 2.4
28/03:30am 6.0 3.8 6.0 100 0.0 SE 7 9 4 5 1013.5 1013.2 2.4
28/03:00am 5.9 2.9 5.9 100 0.0 SE 11 17 6 9 1013.5 1013.2 2.4
28/02:30am 5.9 3.2 5.8 99 0.0 SE 9 13 5 7 1013.8 1013.6 2.4
28/02:23am 5.9 3.2 5.8 99 0.0 SE 9 15 5 8 1013.7 1013.5 2.4
28/02:00am 5.7 3.0 5.6 99 0.0 SSE 9 13 5 7 1013.6 1013.4 2.4
28/01:30am 5.6 3.4 5.5 99 0.0 SSE 6 13 3 7 1013.5 1013.2 2.4
28/01:00am 5.6 2.9 5.5 99 0.0 SSE 9 15 5 8 1013.4 1013.1 2.4
28/12:30am 5.5 3.3 5.5 100 0.0 SSE 6 7 3 4 1013.8 1013.6 2.4
28/12:00am 5.5 3.2 5.5 100 0.0 SSE 7 11 4 6 1013.7 1013.5 2.4
 
Date/Time
EST
Temp
°C
App
Temp
°C
Dew
Point
°C
Rel
Hum
%
Delta-T
°C
Wind Press
QNH
hPa
Press
MSL
hPa
Rain since
9am
mm
Dir  Spd
km/h
Gust
km/h
Spd
kts
Gust
kts
27/11:53pm 5.5 3.2 5.5 100 0.0 S 7 11 4 6 1013.7 1013.5 2.4
27/11:30pm 5.7 3.6 5.7 100 0.0 SE 6 11 3 6 1013.8 1013.6 2.4
27/11:20pm 5.7 3.0 5.7 100 0.0 SE 9 15 5 8 1013.8 1013.6 2.4
27/11:01pm 5.5 3.2 5.5 100 0.0 SE 7 11 4 6 1013.5 1013.2 2.4
27/11:00pm 5.6 3.3 5.6 100 0.0 SE 7 11 4 6 1013.5 1013.2 2.4
27/10:30pm 5.2 2.8 5.2 100 0.0 SE 7 11 4 6 1013.6 1013.4 2.4
27/10:00pm 5.6 3.5 5.6 100 0.0 SSE 6 9 3 5 1013.6 1013.4 2.4
27/09:30pm 5.9 2.9 5.9 100 0.0 ESE 11 17 6 9 1013.7 1013.5 2.4
27/09:00pm 6.0 3.9 6.0 100 0.0 ESE 6 11 3 6 1013.7 1013.5 2.4
27/08:30pm 5.9 3.8 5.9 100 0.0 ESE 6 9 3 5 1013.7 1013.5 2.4
27/08:00pm 5.9 3.3 5.9 100 0.0 SE 9 13 5 7 1013.5 1013.2 2.4
27/07:54pm 6.1 3.9 6.1 100 0.0 ESE 7 11 4 6 1013.4 1013.1 2.4
27/07:51pm 6.1 3.9 6.0 99 0.0 ESE 7 13 4 7 1013.4 1013.1 2.4
27/07:30pm 5.7 3.4 5.6 99 0.0 ESE 7 9 4 5 1013.3 1013.0 2.4
27/07:10pm 6.2 4.0 6.1 99 0.0 SE 7 11 4 6 1013.0 1012.8 2.4
27/07:00pm 6.0 3.7 5.9 99 0.0 ESE 7 9 4 5 1013.0 1012.8 2.4
27/06:30pm 6.1 4.0 6.0 99 0.0 NE 6 9 3 5 1012.6 1012.3 2.4
27/06:00pm 6.7 4.5 5.3 91 0.7 ENE 6 7 3 4 1012.3 1012.1 2.4
27/05:54pm 7.0 4.7 5.5 90 0.7 NE 7 9 4 5 1012.2 1012.0 2.4
27/05:30pm 7.3 5.1 5.4 88 0.9 E 6 9 3 5 1012.1 1011.8 2.4
27/05:27pm 7.4 5.2 5.5 88 0.9 E 6 9 3 5 1012.1 1011.8 2.4
27/05:00pm 7.6 5.4 6.4 92 0.6 ESE 7 9 4 5 1011.9 1011.6 2.4
27/04:30pm 7.7 5.3 6.8 94 0.4 E 9 11 5 6 1011.7 1011.4 2.4
27/04:00pm 8.2 6.0 6.2 87 1.0 SE 7 13 4 7 1011.4 1011.1 2.4
27/03:51pm 8.4 7.0 5.7 83 1.3 E 2 9 1 5 1011.4 1011.1 2.4
27/03:30pm 8.6 6.6 4.6 76 1.9 NNW 4 7 2 4 1011.3 1011.0 2.4
27/03:00pm 9.1 6.8 5.7 79 1.7 NW 7 11 4 6 1011.2 1010.9 2.4
27/02:30pm 8.3 6.2 6.6 89 0.8 WNW 7 15 4 8 1011.3 1011.0 2.4
27/02:09pm 6.7 4.5 6.1 96 0.3 NNW 7 11 4 6 1011.6 1011.3 2.4
27/02:00pm 6.4 3.3 5.7 95 0.3 N 11 17 6 9 1011.6 1011.3 2.2
27/01:54pm 6.5 3.1 6.1 97 0.2 N 13 22 7 12 1011.7 1011.4 2.0
27/01:41pm 6.7 2.9 6.0 95 0.3 NE 15 30 8 16 1011.7 1011.4 1.8
27/01:35pm 7.7 4.8 6.5 92 0.6 ENE 11 30 6 16 1011.6 1011.3 1.2
27/01:30pm 8.7 6.1 7.8 94 0.5 ENE 11 17 6 9 1011.3 1011.0 0.6
27/01:14pm 9.8 7.5 5.8 76 2.0 E 7 13 4 7 1011.2 1010.9 0.4
27/01:00pm 10.5 9.4 6.8 78 1.9 SE 2 7 1 4 1011.3 1011.0 0.4
27/12:58pm 10.5 9.5 7.2 80 1.7 ESE 2 7 1 4 1011.2 1010.9 0.4
27/12:56pm 10.1 8.9 6.3 77 1.9 ESE 2 7 1 4 1011.2 1010.9 0.4
27/12:30pm 9.5 7.4 6.8 83 1.4 N 7 17 4 9 1011.6 1011.3 0.4
27/12:13pm 8.5 6.4 8.2 98 0.2 NNE 9 17 5 9 1011.8 1011.5 0.4
27/12:03pm 9.5 7.3 9.4 99 0.1 ENE 11 20 6 11 1011.8 1011.5 0.4
27/12:00pm 9.3 6.6 9.0 98 0.2 ENE 13 20 7 11 1011.9 1011.6 0.4
27/11:33am 9.5 6.9 9.5 100 0.0 ENE 13 19 7 10 1012.1 1011.8 0.4
27/11:30am 8.5 5.7 8.5 100 0.0 ENE 13 20 7 11 1012.2 1012.0 0.4
27/11:04am 6.8 4.4 6.8 100 0.0 ENE 9 15 5 8 1012.6 1012.3 0.2
27/11:00am 6.8 4.4 6.8 100 0.0 ENE 9 15 5 8 1012.6 1012.3 0.2
27/10:53am 7.0 4.6 7.0 100 0.0 ENE 9 17 5 9 1012.6 1012.3 0.2
27/10:40am 6.9 4.5 6.9 100 0.0 E 9 17 5 9 1012.5 1012.2 0.2
27/10:35am 6.8 4.0 6.8 100 0.0 E 11 19 6 10 1012.6 1012.3 0.2
27/10:30am 6.7 3.8 6.7 100 0.0 ENE 11 19 6 10 1012.6 1012.3 0.2
27/10:00am 6.3 3.0 6.3 100 0.0 E 13 20 7 11 1012.7 1012.4 0.0
27/09:30am 6.6 4.1 6.6 100 0.0 E 9 15 5 8 1012.8 1012.5 0.0
27/09:00am 6.7 4.2 6.7 100 0.0 E 9 17 5 9 1012.7 1012.4 2.2
27/08:30am 6.1 4.1 6.1 100 0.0 E 6 13 3 7 1012.9 1012.7 2.2
27/08:00am 6.0 3.9 6.0 100 0.0 E 6 11 3 6 1012.8 1012.5 2.2
27/07:30am 5.5 3.3 5.5 100 0.0 ENE 6 9 3 5 1012.8 1012.5 2.2
27/07:00am 5.2 3.0 5.2 100 0.0 E 6 7 3 4 1012.7 1012.4 2.2
27/06:46am 4.2 2.5 4.2 100 0.0 NE 2 4 1 2 1012.6 1012.3 2.2
27/06:33am 3.3 1.8 3.2 99 0.0 CALM 0 2 0 1 1012.5 1012.2 2.2
27/06:30am 3.3 1.8 3.2 99 0.0 CALM 0 2 0 1 1012.5 1012.2 2.2
27/06:28am 3.2 1.7 3.1 99 0.0 CALM 0 2 0 1 1012.5 1012.2 2.2
27/06:25am 3.2 1.7 3.1 99 0.0 CALM 0 2 0 1 1012.5 1012.2 2.2
27/06:00am 2.6 1.0 2.5 99 0.0 CALM 0 2 0 1 1012.1 1011.8 2.0
27/05:44am 2.9 1.4 2.8 99 0.0 CALM 0 2 0 1 1012.2 1012.0 2.0
27/05:30am 2.3 0.7 2.2 99 0.0 CALM 0 2 0 1 1012.2 1012.0 2.0
27/05:02am 2.7 0.8 2.6 99 0.0 SE 2 2 1 1 1012.0 1011.7 2.0
27/05:00am 2.8 0.9 2.7 99 0.0 ESE 2 2 1 1 1012.1 1011.8 2.0
27/04:30am 2.3 0.3 2.2 99 0.0 NW 2 6 1 3 1012.1 1011.8 2.0
27/04:11am 2.9 1.0 2.8 99 0.0 NNW 2 6 1 3 1012.0 1011.7 2.0
27/04:00am 3.4 1.6 3.3 99 0.0 ENE 2 7 1 4 1012.1 1011.8 2.0
27/03:43am 3.5 1.7 3.4 99 0.0 W 2 4 1 2 1012.1 1011.8 2.0
27/03:31am 3.8 2.0 3.7 99 0.0 W 2 4 1 2 1012.1 1011.8 2.0
27/03:30am 3.7 1.9 3.6 99 0.0 W 2 4 1 2 1012.1 1011.8 2.0
27/03:27am 3.6 2.2 3.5 99 0.0 CALM 0 4 0 2 1012.2 1012.0 2.0
27/03:03am 3.5 2.1 3.4 99 0.0 CALM 0 2 0 1 1012.5 1012.2 2.0
27/03:00am 3.4 2.0 3.3 99 0.0 CALM 0 2 0 1 1012.5 1012.2 2.0
27/02:42am 3.4 1.6 3.3 99 0.0 NW 2 6 1 3 1012.3 1012.1 2.0
27/02:30am 3.6 1.8 3.5 99 0.0 NNE 2 7 1 4 1012.5 1012.2 2.0
27/02:04am 3.6 1.8 3.5 99 0.0 SE 2 2 1 1 1012.6 1012.3 2.0
27/02:00am 3.7 1.9 3.6 99 0.0 S 2 4 1 2 1012.6 1012.3 2.0
27/01:30am 3.5 2.1 3.4 99 0.0 CALM 0 2 0 1 1013.1 1012.9 2.0
27/01:00am 3.5 1.7 3.4 99 0.0 S 2 6 1 3 1013.5 1013.2 2.0
27/12:38am 3.7 1.5 3.6 99 0.0 NW 4 6 2 3 1013.6 1013.4 2.0
27/12:30am 3.3 1.1 3.2 99 0.0 NNW 4 6 2 3 1013.6 1013.4 2.0
27/12:15am 3.0 1.1 2.9 99 0.0 N 2 4 1 2 1013.6 1013.4 2.0
27/12:00am 2.3 -0.1 2.2 99 0.0 ESE 4 6 2 3 1013.7 1013.5 2.0
 
Date/Time
EST
Temp
°C
App
Temp
°C
Dew
Point
°C
Rel
Hum
%
Delta-T
°C
Wind Press
QNH
hPa
Press
MSL
hPa
Rain since
9am
mm
Dir  Spd
km/h
Gust
km/h
Spd
kts
Gust
kts
26/11:30pm 3.1 1.2 3.0 99 0.0 SE 2 4 1 2 1013.7 1013.5 2.0
26/11:28pm 3.1 1.2 3.0 99 0.0 SSE 2 4 1 2 1013.7 1013.5 2.0
26/11:00pm 3.8 1.3 3.7 99 0.0 NNW 6 9 3 5 1013.9 1013.7 2.0
26/10:30pm 3.7 1.9 3.6 99 0.0 N 2 4 1 2 1014.3 1014.1 2.0
26/10:00pm 3.8 2.0 3.7 99 0.0 NW 2 4 1 2 1014.5 1014.3 1.8
26/09:30pm 4.1 1.6 3.5 96 0.3 N 6 7 3 4 1014.5 1014.3 1.8
26/09:00pm 4.2 2.1 3.8 97 0.2 ESE 4 6 2 3 1014.7 1014.5 1.8
26/08:31pm 4.1 2.3 3.7 97 0.2 ESE 2 6 1 3 1014.8 1014.6 1.8
26/08:30pm 4.0 2.2 3.4 96 0.3 ESE 2 6 1 3 1014.8 1014.6 1.8
26/08:13pm 3.9 1.7 3.6 98 0.1 SE 4 6 2 3 1014.8 1014.6 1.8
26/08:00pm 3.8 1.6 3.4 97 0.2 SSE 4 6 2 3 1014.7 1014.5 1.8
26/07:34pm 4.3 1.7 3.1 92 0.5 NNW 6 9 3 5 1014.5 1014.3 1.8
26/07:30pm 4.3 1.7 3.1 92 0.5 NNW 6 9 3 5 1014.5 1014.3 1.8
26/07:00pm 3.9 1.4 3.8 99 0.0 WNW 6 11 3 6 1014.4 1014.2 1.8
26/06:42pm 3.8 1.6 3.5 98 0.1 NE 4 6 2 3 1014.3 1014.1 1.8
26/06:30pm 4.1 2.0 3.8 98 0.1 NE 4 7 2 4 1014.3 1014.1 1.8
26/06:28pm 4.2 2.1 3.9 98 0.1 NNE 4 7 2 4 1014.3 1014.1 1.8
26/06:26pm 4.2 2.1 3.8 97 0.2 NNE 4 7 2 4 1014.3 1014.1 1.8
26/06:08pm 4.3 1.8 3.9 97 0.2 NNE 6 11 3 6 1014.0 1013.8 1.8
26/06:00pm 4.5 2.0 3.8 95 0.3 NNE 6 9 3 5 1014.2 1013.9 1.8
26/05:30pm 4.8 1.6 3.1 89 0.8 NE 9 15 5 8 1014.0 1013.8 1.8
26/05:00pm 5.5 2.8 2.8 83 1.2 NE 6 11 3 6 1013.9 1013.7 1.8
26/04:30pm 6.0 2.7 2.5 78 1.6 N 9 17 5 9 1014.2 1013.9 1.8
26/04:00pm 5.6 1.9 2.6 81 1.3 N 11 17 6 9 1014.4 1014.2 1.8
26/03:30pm 5.6 -0.1 0.4 69 2.2 NNW 20 39 11 21 1014.6 1014.4 1.8
26/03:00pm 7.5 3.8 4.5 81 1.4 NNW 13 20 7 11 1014.7 1014.5 1.8
26/02:30pm 8.1 5.8 4.7 79 1.6 ESE 6 9 3 5 1014.5 1014.3 1.8
26/02:00pm 8.2 6.0 6.2 87 1.0 SSE 7 11 4 6 1014.7 1014.5 1.8
26/01:30pm 8.7 6.8 4.9 77 1.8 SSE 4 6 2 3 1015.0 1014.8 1.8
26/01:00pm 8.4 6.5 6.5 88 0.9 ESE 6 7 3 4 1015.4 1015.2 1.8
26/12:30pm 8.1 7.0 4.9 80 1.5 CALM 0 2 0 1 1015.4 1015.2 1.8
26/12:00pm 7.4 5.1 5.0 85 1.1 NE 6 9 3 5 1016.0 1015.8 1.8
26/11:30am 6.4 4.1 4.9 90 0.7 ENE 6 9 3 5 1016.8 1016.6 1.6
26/11:00am 5.7 3.1 3.4 85 1.0 NNW 6 9 3 5 1017.1 1017.0 1.6
26/10:56am 5.9 3.5 4.4 90 0.7 NNW 6 13 3 7 1017.1 1017.0 1.6
26/10:35am 6.4 4.4 6.3 99 0.0 ENE 6 11 3 6 1016.9 1016.7 1.6
26/10:30am 6.2 4.4 5.5 95 0.3 ESE 4 7 2 4 1016.8 1016.6 1.6
26/10:12am 4.9 2.9 4.3 96 0.3 SW 4 9 2 5 1017.1 1017.0 1.6
26/10:02am 4.3 1.9 2.3 87 0.9 NNW 4 7 2 4 1017.4 1017.3 1.4
26/10:00am 4.2 1.8 2.1 86 0.9 N 4 7 2 4 1017.3 1017.2 1.0
26/09:30am 5.2 2.3 1.7 78 1.5 NW 6 9 3 5 1017.8 1017.7 0.2
26/09:00am 5.2 2.4 2.2 81 1.3 NW 6 9 3 5 1017.7 1017.6 0.4
26/08:30am 4.5 2.4 2.0 84 1.1 SSW 2 4 1 2 1017.7 1017.6 0.2
26/08:00am 5.4 2.9 1.5 76 1.7 W 4 6 2 3 1017.6 1017.5 0.0
26/07:30am 5.2 2.6 -1.9 60 2.8 NNW 2 6 1 3 1017.1 1017.0 0.0
26/07:00am 4.7 2.2 -0.9 67 2.3 WNW 2 4 1 2 1016.8 1016.6 0.0
26/06:32am 4.1 1.7 -3.0 60 2.7 CALM 0 2 0 1 1016.7 1016.5 0.0
26/06:30am 4.1 1.7 -3.2 59 2.8 CALM 0 2 0 1 1016.8 1016.6 0.0
26/06:16am 4.6 1.0 -3.9 54 3.2 ESE 6 7 3 4 1016.4 1016.3 0.0
26/06:00am 3.7 0.7 -2.0 66 2.2 NW 4 6 2 3 1016.5 1016.4 0.0
26/05:30am 3.6 1.4 -1.7 68 2.1 CALM 0 4 0 2 1016.5 1016.4 0.0
26/05:00am 3.7 0.9 -3.3 60 2.6 N 2 2 1 1 1016.2 1016.0 0.0
26/04:30am 3.2 0.2 -1.7 70 1.9 WNW 4 6 2 3 1016.0 1015.8 0.0
26/04:00am 3.4 0.7 -2.5 65 2.3 SSW 2 2 1 1 1016.0 1015.8 0.0
26/03:30am 3.2 0.3 -4.3 58 2.7 WNW 2 4 1 2 1016.1 1015.9 0.0
26/03:00am 3.2 0.2 -5.0 55 2.9 NW 2 4 1 2 1016.3 1016.2 0.0
26/02:30am 3.3 -0.5 -5.3 53 3.1 NNW 6 7 3 4 1016.4 1016.3 0.0
26/02:05am 3.2 0.4 -3.4 62 2.5 NW 2 4 1 2 1016.7 1016.5 0.0
26/02:00am 2.5 -0.3 -3.2 66 2.1 NW 2 4 1 2 1016.7 1016.5 0.0
26/01:52am 3.1 -0.5 -3.9 60 2.6 NW 6 7 3 4 1016.7 1016.5 0.0
26/01:30am 1.5 -1.9 -2.1 77 1.4 NW 6 7 3 4 1016.9 1016.7 0.0
26/01:00am 2.7 -0.7 -0.9 77 1.4 NNW 7 9 4 5 1017.1 1017.0 0.0
26/12:30am 2.9 -0.4 -0.9 76 1.5 NNW 6 7 3 4 1017.2 1017.1 0.0
26/12:00am 1.5 -1.7 -0.7 85 0.9 NNW 6 7 3 4 1017.4 1017.3 0.0
 
Date/Time
EST
Temp
°C
App
Temp
°C
Dew
Point
°C
Rel
Hum
%
Delta-T
°C
Wind Press
QNH
hPa
Press
MSL
hPa
Rain since
9am
mm
Dir  Spd
km/h
Gust
km/h
Spd
kts
Gust
kts
25/11:30pm 2.7 0.6 1.7 93 0.4 NNW 2 6 1 3 1017.7 1017.6 0.0
25/11:00pm 2.2 0.2 2.1 99 0.0 NNW 2 4 1 2 1017.6 1017.5 0.0
25/10:30pm 2.2 -0.8 1.0 92 0.5 NNW 6 7 3 4 1017.6 1017.5 0.0
25/10:00pm 2.9 -0.1 1.9 93 0.4 NNW 7 11 4 6 1017.4 1017.3 0.0
25/09:30pm 3.2 0.4 2.2 93 0.4 WNW 6 7 3 4 1017.6 1017.5 0.0
25/09:17pm 3.1 0.3 1.9 92 0.5 NW 6 6 3 3 1017.7 1017.6 0.0
25/09:06pm 2.3 -0.6 1.3 93 0.4 NW 6 6 3 3 1017.8 1017.7 0.0
25/09:00pm 3.0 0.5 1.7 91 0.6 NNW 4 6 2 3 1017.7 1017.6 0.0
25/08:30pm 3.3 1.5 3.2 99 0.0 WNW 2 4 1 2 1017.6 1017.5 0.0
25/08:00pm 3.8 2.0 3.7 99 0.0 W 2 4 1 2 1017.4 1017.3 0.0
25/07:30pm 3.8 1.9 2.8 93 0.4 WNW 2 6 1 3 1017.3 1017.2 0.0
25/07:00pm 4.6 2.3 2.5 86 0.9 ESE 4 6 2 3 1016.9 1016.7 0.0
25/06:30pm 6.1 3.0 3.6 84 1.1 E 9 13 5 7 1016.7 1016.5 0.0
25/06:00pm 6.6 3.7 1.3 69 2.3 SSW 6 7 3 4 1016.3 1016.2 0.0
25/05:30pm 7.8 4.8 1.0 62 3.0 SSW 6 9 3 5 1016.1 1015.9 0.0
25/05:00pm 9.7 5.8 1.1 55 3.8 WSW 11 17 6 9 1015.9 1015.7 0.0
25/04:30pm 10.0 5.7 1.1 54 4.0 W 13 20 7 11 1015.2 1015.0 0.0
25/04:00pm 9.9 5.9 0.8 53 4.0 WNW 11 17 6 9 1015.3 1015.1 0.0
25/03:30pm 11.7 6.8 -0.4 43 5.3 W 15 20 8 11 1015.2 1015.0 0.0
25/03:00pm 12.0 7.3 -1.9 38 5.9 W 13 20 7 11 1015.0 1014.8 0.0
25/02:30pm 12.2 7.1 -5.3 29 6.9 W 13 20 7 11 1014.7 1014.5 0.0
25/02:00pm 13.0 8.2 -6.0 26 7.5 W 11 20 6 11 1014.7 1014.5 0.0
25/01:30pm 13.1 8.4 -5.4 27 7.4 WSW 11 22 6 12 1014.7 1014.5 0.0
25/01:00pm 12.5 7.1 -4.6 30 6.9 NNW 15 24 8 13 1014.6 1014.4 0.0
25/12:30pm 11.8 6.7 -5.2 30 6.7 NNW 13 22 7 12 1014.8 1014.6 0.0
25/12:00pm 11.5 6.8 -5.0 31 6.5 NNW 11 17 6 9 1015.1 1014.9 0.0
25/11:30am 11.5 7.1 -2.7 37 5.9 NNW 11 19 6 10 1015.3 1015.1 0.0
25/11:00am 10.8 8.5 2.6 57 3.8 NNE 4 9 2 5 1015.4 1015.2 0.0
25/10:30am 9.2 6.9 5.0 75 2.0 E 6 13 3 7 1015.3 1015.1 0.0
25/10:00am 7.5 5.2 4.8 83 1.3 ESE 6 9 3 5 1015.3 1015.1 0.0

Other formats

Comma delimited format used in spreadsheet applications
http://www.bom.gov.au/fwo/IDV60801/IDV60801.94905.axf

JavaScript Object Notation format (JSON) in row-major order
http://www.bom.gov.au/fwo/IDV60801/IDV60801.94905.json

Data quality

Most of these data are generated automatically and are frequently updated. Quality checks on data are not normally performed. It is possible for incorrect values to appear. Refer to information at About Latest Weather Observations and please check the disclaimer before using these data.